Time;durP1;ratioP1;P1;durP2;ratioP2;P2;SDS_P1;SDS_P2;PMS_P1;PMS_P2;Temp;Humidity;BMP_temperature;BMP_pressure;BME280_temperature;BME280_humidity;BME280_pressure;Samples;Min_cycle;Max_cycle;Signal;HPM_P1;HPM_P2
2022/09/29 00:00:15;;;;;;;;;;;;;;;22.01;61.14;99831.09;7407879;19;1463;-64
2022/09/29 00:02:43;;;;;;;;;;;;;;;22.04;60.82;99825.34;7404526;19;1668;-64
2022/09/29 00:05:11;;;;;;;;;;;;;;;21.95;60.58;99800.34;7406496;19;1654;-64
2022/09/29 00:07:42;;;;;;;;;;;;;;;21.99;60.87;99827.75;7407237;19;1553;-64
2022/09/29 00:10:10;;;;;;;;;;;;;;;22.00;60.88;99810.56;7406263;19;1736;-64
2022/09/29 00:12:39;;;;;;;;;;;;;;;22.04;60.49;99806.47;7406655;19;1535;-64
2022/09/29 00:15:08;;;;;;;;;;;;;;;21.97;60.20;99808.22;7406961;19;1468;-64
2022/09/29 00:17:36;;;;;;;;;;;;;;;22.01;60.33;99823.84;7405873;19;1862;-64
2022/09/29 00:20:05;;;;;;;;;;;;;;;21.93;60.69;99812.31;7406213;19;1756;-64
2022/09/29 00:22:33;;;;;;;;;;;;;;;21.93;60.37;99817.69;7405964;19;1461;-64
2022/09/29 00:25:04;;;;;;;;;;;;;;;21.91;60.54;99811.66;7405362;19;1563;-64
2022/09/29 00:27:32;;;;;;;;;;;;;;;21.94;60.54;99816.66;7406735;19;1518;-64
2022/09/29 00:30:00;;;;;;;;;;;;;;;21.94;59.47;99813.97;7406703;19;1870;-64
2022/09/29 00:32:28;;;;;;;;;;;;;;;21.92;60.17;99813.31;7406438;19;1634;-64
2022/09/29 00:34:57;;;;;;;;;;;;;;;21.90;60.18;99804.56;7405567;19;1688;-64
2022/09/29 00:37:25;;;;;;;;;;;;;;;21.90;60.30;99820.72;7405220;19;1846;-64
2022/09/29 00:39:53;;;;;;;;;;;;;;;21.89;60.11;99816.38;7406151;19;1476;-64
2022/09/29 00:42:24;;;;;;;;;;;;;;;21.92;59.93;99821.38;7406400;19;1716;-64
2022/09/29 00:45:08;;;;;;;;;;;;;;;21.91;59.87;99812.47;7405305;19;1570;-64
2022/09/29 00:47:37;;;;;;;;;;;;;;;21.93;60.23;99815.00;7406011;19;1768;-63
2022/09/29 00:50:11;;;;;;;;;;;;;;;21.92;60.11;99818.69;7404570;19;1775;-64
2022/09/29 00:52:41;;;;;;;;;;;;;;;21.89;60.12;99811.81;7405143;19;1567;-64
2022/09/29 00:55:12;;;;;;;;;;;;;;;21.90;60.30;99828.78;7405420;19;1535;-64
2022/09/29 00:57:45;;;;;;;;;;;;;;;21.96;59.84;99825.38;7404890;19;1872;-64
2022/09/29 01:00:16;;;;;;;;;;;;;;;21.91;59.42;99812.47;7405512;19;1550;-64
2022/09/29 01:02:46;;;;;;;;;;;;;;;21.88;59.90;99807.44;7403393;19;1669;-64
2022/09/29 01:05:17;;;;;;;;;;;;;;;21.90;59.98;99820.72;7404331;19;1662;-64
2022/09/29 01:07:46;;;;;;;;;;;;;;;21.86;59.91;99809.47;7405220;19;1403;-64
2022/09/29 01:10:15;;;;;;;;;;;;;;;21.87;59.87;99800.38;7404915;19;1736;-64
2022/09/29 01:12:48;;;;;;;;;;;;;;;21.87;59.70;99811.16;7404771;19;1545;-64
2022/09/29 01:15:18;;;;;;;;;;;;;;;21.82;59.60;99808.16;7405388;19;1464;-64
2022/09/29 01:17:46;;;;;;;;;;;;;;;21.82;59.81;99808.97;7404716;19;1850;-64
2022/09/29 01:20:17;;;;;;;;;;;;;;;21.84;59.16;99796.22;7404535;19;1673;-64
2022/09/29 01:23:00;;;;;;;;;;;;;;;21.86;59.34;99820.22;7404260;19;1778;-64
2022/09/29 01:25:39;;;;;;;;;;;;;;;21.82;59.88;99819.75;7404517;19;1646;-64
2022/09/29 01:28:24;;;;;;;;;;;;;;;21.79;59.45;99814.72;7404028;19;1523;-64
2022/09/29 01:31:06;;;;;;;;;;;;;;;21.80;59.44;99816.38;7403938;19;1561;-64
2022/09/29 01:33:39;;;;;;;;;;;;;;;21.83;59.10;99826.81;7404348;19;1475;-64
2022/09/29 01:36:13;;;;;;;;;;;;;;;21.81;58.86;99826.16;7406737;19;1808;-64
2022/09/29 01:38:48;;;;;;;;;;;;;;;21.82;58.66;99819.75;7410398;19;1861;-64
2022/09/29 01:41:20;;;;;;;;;;;;;;;21.87;59.19;99826.47;7411820;19;1732;-64
2022/09/29 01:43:51;;;;;;;;;;;;;;;21.82;59.11;99827.81;7411031;19;1664;-64
2022/09/29 01:46:24;;;;;;;;;;;;;;;21.81;59.02;99822.63;7411214;19;1649;-64
2022/09/29 01:48:54;;;;;;;;;;;;;;;21.83;59.30;99832.19;7410430;19;1744;-64
2022/09/29 01:51:23;;;;;;;;;;;;;;;21.85;59.52;99846.31;7411125;19;1456;-64
2022/09/29 01:53:53;;;;;;;;;;;;;;;21.79;58.87;99812.03;7412251;19;1480;-63
2022/09/29 01:56:25;;;;;;;;;;;;;;;21.80;58.48;99821.78;7411058;19;1748;-63
2022/09/29 01:58:55;;;;;;;;;;;;;;;21.79;58.37;99811.22;7408455;19;1850;-65
2022/09/29 02:01:29;;;;;;;;;;;;;;;21.80;58.62;99823.63;7403596;19;1732;-64
2022/09/29 02:03:59;;;;;;;;;;;;;;;21.82;58.69;99813.53;7410701;19;1479;-64
2022/09/29 02:06:30;;;;;;;;;;;;;;;21.80;58.81;99816.38;7410980;19;1582;-64
2022/09/29 02:09:00;;;;;;;;;;;;;;;21.79;58.76;99822.81;7410906;19;1444;-64
2022/09/29 02:11:29;;;;;;;;;;;;;;;21.78;58.61;99823.81;7411444;19;1625;-64
2022/09/29 02:13:59;;;;;;;;;;;;;;;21.78;58.75;99818.41;7409715;19;1764;-64
2022/09/29 02:16:32;;;;;;;;;;;;;;;21.80;58.47;99827.16;7410308;19;1559;-64
2022/09/29 02:19:06;;;;;;;;;;;;;;;21.80;58.81;99821.78;7408337;19;1853;-64
2022/09/29 02:21:35;;;;;;;;;;;;;;;21.83;58.72;99837.59;7409400;19;1733;-64
2022/09/29 02:24:03;;;;;;;;;;;;;;;21.75;58.99;99826.03;7411538;19;1500;-64
2022/09/29 02:26:34;;;;;;;;;;;;;;;21.77;58.55;99824.84;7410343;19;1696;-64
2022/09/29 02:29:03;;;;;;;;;;;;;;;21.77;58.42;99822.13;7409303;19;1662;-64
2022/09/29 02:31:35;;;;;;;;;;;;;;;21.78;58.77;99829.19;7409128;19;1534;-64
2022/09/29 02:34:05;;;;;;;;;;;;;;;21.78;59.03;99834.56;7409704;19;1673;-64
2022/09/29 02:36:35;;;;;;;;;;;;;;;21.80;58.61;99826.31;7408487;19;1717;-64
2022/09/29 02:39:07;;;;;;;;;;;;;;;21.77;58.29;99826.69;7409262;19;1857;-64
2022/09/29 02:41:42;;;;;;;;;;;;;;;21.75;57.99;99829.56;7407120;19;1495;-64
2022/09/29 02:44:28;;;;;;;;;;;;;;;21.75;58.13;99826.88;7407834;19;1723;-64
2022/09/29 02:47:09;;;;;;;;;;;;;;;21.76;58.47;99839.28;7407413;19;1586;-64
2022/09/29 02:49:49;;;;;;;;;;;;;;;21.80;58.20;99835.22;7409462;19;1542;-64
2022/09/29 02:52:22;;;;;;;;;;;;;;;21.78;58.50;99834.56;7408993;19;1554;-64
2022/09/29 02:54:54;;;;;;;;;;;;;;;21.80;58.32;99837.09;7410096;19;1461;-64
2022/09/29 02:57:26;;;;;;;;;;;;;;;21.77;58.16;99826.69;7410061;19;1440;-64
2022/09/29 02:59:59;;;;;;;;;;;;;;;21.77;58.10;99832.06;7407205;19;1865;-64
2022/09/29 03:02:30;;;;;;;;;;;;;;;21.77;58.19;99843.66;7406966;19;1508;-64
2022/09/29 03:04:59;;;;;;;;;;;;;;;21.77;57.88;99832.91;7409272;19;1554;-64
2022/09/29 03:07:27;;;;;;;;;;;;;;;21.78;58.06;99839.13;7408625;19;1728;-64
2022/09/29 03:09:55;;;;;;;;;;;;;;;21.78;58.15;99831.88;7409302;19;1830;-64
2022/09/29 03:12:23;;;;;;;;;;;;;;;21.88;58.42;99828.97;7408474;19;1542;-64
2022/09/29 03:14:52;;;;;;;;;;;;;;;21.89;58.73;99843.28;7408410;19;1351;-65
2022/09/29 03:17:20;;;;;;;;;;;;;;;21.89;58.93;99830.66;7408034;19;1321;-64
2022/09/29 03:19:51;;;;;;;;;;;;;;;21.86;59.23;99820.22;7405156;19;1857;-64
2022/09/29 03:22:19;;;;;;;;;;;;;;;21.87;59.18;99837.25;7406722;19;1452;-64
2022/09/29 03:24:47;;;;;;;;;;;;;;;21.85;59.34;99818.56;7407931;19;1292;-64
2022/09/29 03:27:16;;;;;;;;;;;;;;;21.95;58.97;99829.94;7408218;19;1858;-64
2022/09/29 03:29:44;;;;;;;;;;;;;;;22.01;58.70;99828.41;7407730;19;1672;-64
2022/09/29 03:32:12;;;;;;;;;;;;;;;22.11;58.21;99837.06;7407254;19;1744;-64
2022/09/29 03:34:40;;;;;;;;;;;;;;;22.08;58.37;99826.66;7408029;19;1625;-64
2022/09/29 03:37:11;;;;;;;;;;;;;;;22.03;59.25;99823.66;7406443;19;1925;-61
2022/09/29 03:39:39;;;;;;;;;;;;;;;22.05;59.32;99832.41;7406699;19;1841;-64
2022/09/29 03:42:08;;;;;;;;;;;;;;;22.06;60.11;99826.00;7407098;19;1693;-63
2022/09/29 03:44:36;;;;;;;;;;;;;;;22.07;60.34;99832.25;7407308;19;1495;-64
2022/09/29 03:47:04;;;;;;;;;;;;;;;22.04;61.38;99825.34;7407446;19;1655;-64
2022/09/29 03:49:33;;;;;;;;;;;;;;;22.09;61.84;99812.19;7407420;19;1585;-65
2022/09/29 03:52:01;;;;;;;;;;;;;;;22.07;61.56;99838.44;7404877;19;1681;-64
2022/09/29 03:54:32;;;;;;;;;;;;;;;22.04;64.06;99831.56;7408020;19;1474;-63
2022/09/29 03:57:00;;;;;;;;;;;;;;;22.01;65.46;99837.31;7407395;19;1795;-66
2022/09/29 03:59:28;;;;;;;;;;;;;;;22.15;63.38;99843.78;7404324;19;1826;-63
2022/09/29 04:01:57;;;;;;;;;;;;;;;22.16;63.92;99833.84;7404483;19;1586;-63
2022/09/29 04:04:25;;;;;;;;;;;;;;;22.13;63.23;99821.56;7403565;19;1680;-64
2022/09/29 04:06:53;;;;;;;;;;;;;;;22.18;63.16;99823.72;7405662;19;1673;-65
2022/09/29 04:09:21;;;;;;;;;;;;;;;22.23;63.19;99816.78;7408346;19;1291;-63
2022/09/29 04:11:52;;;;;;;;;;;;;;;22.22;63.02;99819.66;7406670;19;1493;-64
2022/09/29 04:14:21;;;;;;;;;;;;;;;22.22;63.31;99830.44;7407150;19;1736;-64
2022/09/29 04:16:49;;;;;;;;;;;;;;;22.20;63.21;99817.16;7405035;19;1539;-64
2022/09/29 04:19:17;;;;;;;;;;;;;;;22.29;63.11;99823.34;7403963;19;1841;-63
2022/09/29 04:21:46;;;;;;;;;;;;;;;22.29;62.94;99831.44;7406142;19;1475;-64
2022/09/29 04:24:14;;;;;;;;;;;;;;;22.31;62.53;99836.63;7405566;19;1710;-64
2022/09/29 04:26:43;;;;;;;;;;;;;;;22.26;63.31;99830.94;7405425;19;1637;-66
2022/09/29 04:29:14;;;;;;;;;;;;;;;22.34;63.17;99844.34;7405803;19;1653;-63
2022/09/29 04:31:43;;;;;;;;;;;;;;;22.38;63.43;99845.66;7405620;19;1459;-64
2022/09/29 04:34:11;;;;;;;;;;;;;;;22.66;62.97;99864.81;7405381;19;1724;-67
2022/09/29 04:36:40;;;;;;;;;;;;;;;22.97;62.19;99848.50;7404805;19;1672;-63
2022/09/29 04:39:08;;;;;;;;;;;;;;;23.25;61.37;99858.69;7404979;19;1852;-65
2022/09/29 04:41:38;;;;;;;;;;;;;;;23.55;61.19;99848.72;7405408;19;1668;-63
2022/09/29 04:44:06;;;;;;;;;;;;;;;23.35;61.49;99855.72;7405233;19;1716;-66
2022/09/29 04:46:37;;;;;;;;;;;;;;;23.29;62.14;99856.47;7405492;19;1735;-64
2022/09/29 04:49:06;;;;;;;;;;;;;;;23.43;58.64;99856.44;7405254;19;1681;-63
2022/09/29 04:51:34;;;;;;;;;;;;;;;23.38;59.30;99858.88;7404893;19;1761;-63
2022/09/29 04:54:02;;;;;;;;;;;;;;;23.16;60.77;99860.66;7405486;19;1491;-63
2022/09/29 04:56:31;;;;;;;;;;;;;;;23.40;60.86;99859.53;7404493;19;1454;-64
2022/09/29 04:59:02;;;;;;;;;;;;;;;23.40;61.21;99862.25;7403819;19;1861;-65
2022/09/29 05:01:30;;;;;;;;;;;;;;;23.28;61.53;99858.34;7403460;19;1569;-66
2022/09/29 05:04:01;;;;;;;;;;;;;;;23.12;61.75;99859.34;7405474;19;1476;-66
2022/09/29 05:06:29;;;;;;;;;;;;;;;22.94;61.63;99856.97;7405748;19;1719;-69
2022/09/29 05:08:57;;;;;;;;;;;;;;;23.07;61.82;99866.31;7405009;19;1465;-67
2022/09/29 05:11:26;;;;;;;;;;;;;;;23.68;60.21;99860.75;7404464;19;1638;-65
2022/09/29 05:13:54;;;;;;;;;;;;;;;24.63;57.85;99867.84;7403640;19;1672;-65
2022/09/29 05:16:22;;;;;;;;;;;;;;;23.93;59.34;99856.69;7404217;19;1645;-65
2022/09/29 05:18:51;;;;;;;;;;;;;;;23.64;60.90;99862.97;7404535;19;1849;-65
2022/09/29 05:21:22;;;;;;;;;;;;;;;23.26;61.23;99870.31;7404951;19;1689;-67
2022/09/29 05:23:50;;;;;;;;;;;;;;;23.09;61.92;99881.28;7404502;19;1618;-66
2022/09/29 05:26:18;;;;;;;;;;;;;;;22.95;62.23;99885.59;7404873;19;1768;-64
2022/09/29 05:28:48;;;;;;;;;;;;;;;22.89;62.66;99878.25;7403840;19;1356;-68
2022/09/29 05:31:16;;;;;;;;;;;;;;;22.85;62.68;99871.53;7402475;19;1451;-64
2022/09/29 05:33:45;;;;;;;;;;;;;;;22.85;62.67;99887.72;7403605;19;1446;-65
2022/09/29 05:36:14;;;;;;;;;;;;;;;22.89;62.81;99894.41;7404312;19;1653;-65
2022/09/29 05:38:45;;;;;;;;;;;;;;;22.86;63.17;99885.84;7405150;19;1857;-65
2022/09/29 05:41:15;;;;;;;;;;;;;;;22.86;63.13;99891.25;7403054;19;1496;-66
2022/09/29 05:43:43;;;;;;;;;;;;;;;22.89;63.21;99897.13;7401629;19;1481;-76
2022/09/29 05:46:12;;;;;;;;;;;;;;;22.92;63.34;99885.97;7404140;19;1725;-65
2022/09/29 05:48:42;;;;;;;;;;;;;;;22.87;63.94;99882.16;7402464;19;1795;-65
2022/09/29 05:51:11;;;;;;;;;;;;;;;22.91;64.11;99888.84;7402797;19;1432;-64
2022/09/29 05:53:40;;;;;;;;;;;;;;;22.86;64.43;99881.31;7403768;19;1455;-65
2022/09/29 05:56:12;;;;;;;;;;;;;;;22.85;63.98;99876.94;7401721;19;1785;-65
2022/09/29 05:58:41;;;;;;;;;;;;;;;22.86;65.20;99878.63;7402643;19;1843;-66
2022/09/29 06:01:09;;;;;;;;;;;;;;;22.81;65.13;99879.16;7401891;19;1673;-64
2022/09/29 06:03:38;;;;;;;;;;;;;;;22.89;64.16;99886.31;7403115;19;1570;-65
2022/09/29 06:06:08;;;;;;;;;;;;;;;22.83;64.54;99870.88;7403029;19;1374;-65
2022/09/29 06:08:36;;;;;;;;;;;;;;;22.88;64.20;99883.81;7402117;19;1376;-70
2022/09/29 06:11:05;;;;;;;;;;;;;;;22.90;64.36;99888.03;7403632;19;1479;-64
2022/09/29 06:13:39;;;;;;;;;;;;;;;22.89;64.29;99878.25;7402306;19;1562;-65
2022/09/29 06:16:07;;;;;;;;;;;;;;;22.87;64.29;99866.81;7402809;19;1487;-68
2022/09/29 06:18:36;;;;;;;;;;;;;;;22.89;64.29;99872.84;7403034;19;1504;-67
2022/09/29 06:21:05;;;;;;;;;;;;;;;22.85;65.03;99874.25;7400882;19;1959;-65
2022/09/29 06:23:34;;;;;;;;;;;;;;;22.83;65.12;99866.31;7411359;19;1293;-63
2022/09/29 06:26:03;;;;;;;;;;;;;;;22.79;64.47;99858.78;7410472;19;1553;-65
2022/09/29 06:28:32;;;;;;;;;;;;;;;22.82;64.73;99864.66;7410176;19;1394;-64
2022/09/29 06:31:04;;;;;;;;;;;;;;;22.86;64.31;99869.69;7410048;19;1526;-68
2022/09/29 06:33:33;;;;;;;;;;;;;;;22.90;64.72;99871.84;7410471;19;1213;-66
2022/09/29 06:38:44;;;;;;;;;;;;;;;22.87;64.34;99847.94;7412075;19;674;-65
2022/09/29 06:41:13;;;;;;;;;;;;;;;22.89;64.48;99839.66;7405733;19;1850;-65
2022/09/29 06:43:41;;;;;;;;;;;;;;;22.77;65.10;99847.38;7409498;19;1694;-67
2022/09/29 06:46:12;;;;;;;;;;;;;;;22.80;64.48;99871.25;7408718;19;1427;-64
2022/09/29 06:48:40;;;;;;;;;;;;;;;22.54;63.83;99860.84;7410419;19;1237;-65
2022/09/29 06:51:09;;;;;;;;;;;;;;;22.63;63.27;99866.00;7408654;19;1563;-65
2022/09/29 06:53:37;;;;;;;;;;;;;;;22.73;64.75;99864.91;7408376;19;1348;-65
2022/09/29 06:56:05;;;;;;;;;;;;;;;22.79;64.45;99858.78;7409867;19;1662;-65
2022/09/29 06:58:34;;;;;;;;;;;;;;;22.80;64.34;99864.00;7408973;19;1632;-65
2022/09/29 07:01:04;;;;;;;;;;;;;;;22.88;63.28;99867.63;7407278;19;1886;-65
2022/09/29 07:03:36;;;;;;;;;;;;;;;22.92;63.12;99877.88;7410533;19;1526;-65
2022/09/29 07:06:05;;;;;;;;;;;;;;;22.94;62.84;99886.63;7409661;19;1511;-65
2022/09/29 07:08:35;;;;;;;;;;;;;;;22.99;62.66;99900.38;7410496;19;976;-65
2022/09/29 07:11:04;;;;;;;;;;;;;;;23.05;62.88;99889.94;7407805;19;1759;-65
2022/09/29 07:13:33;;;;;;;;;;;;;;;23.09;62.74;99883.16;7409105;19;1001;-65
2022/09/29 07:16:05;;;;;;;;;;;;;;;23.06;63.27;99911.31;7410031;19;1083;-65
2022/09/29 07:18:36;;;;;;;;;;;;;;;23.02;62.75;99907.31;7409343;19;1756;-66
2022/09/29 07:21:05;;;;;;;;;;;;;;;22.98;62.77;99912.22;7407046;19;1842;-66
2022/09/29 07:23:33;;;;;;;;;;;;;;;23.01;62.62;99905.59;7408343;19;1581;-65
2022/09/29 07:26:02;;;;;;;;;;;;;;;23.05;62.50;99901.56;7409084;19;1605;-66
2022/09/29 07:28:31;;;;;;;;;;;;;;;23.11;62.83;99905.38;7407761;19;1637;-64
2022/09/29 07:31:02;;;;;;;;;;;;;;;23.05;62.42;99898.03;7409061;19;1443;-64
2022/09/29 07:33:31;;;;;;;;;;;;;;;23.07;62.67;99887.88;7405833;19;1577;-64
2022/09/29 07:36:02;;;;;;;;;;;;;;;23.11;62.32;99905.38;7408642;19;1645;-65
2022/09/29 07:38:31;;;;;;;;;;;;;;;23.12;62.40;99909.72;7409495;19;984;-65
2022/09/29 07:41:01;;;;;;;;;;;;;;;23.12;62.04;99910.59;7404355;19;1849;-64
2022/09/29 07:43:29;;;;;;;;;;;;;;;23.08;62.10;99903.91;7406828;19;1545;-64
2022/09/29 07:45:59;;;;;;;;;;;;;;;23.15;62.11;99914.78;7408839;19;1628;-64
2022/09/29 07:48:27;;;;;;;;;;;;;;;23.14;61.91;99895.06;7408218;19;1439;-65
2022/09/29 07:51:02;;;;;;;;;;;;;;;23.18;61.81;99909.84;7407242;19;1452;-64
2022/09/29 07:53:33;;;;;;;;;;;;;;;23.19;61.59;99916.09;7408895;19;1005;-64
2022/09/29 07:56:04;;;;;;;;;;;;;;;23.11;61.82;99890.03;7405725;19;1737;-64
2022/09/29 07:58:33;;;;;;;;;;;;;;;23.11;61.67;99894.59;7406489;19;1629;-65
2022/09/29 08:01:04;;;;;;;;;;;;;;;23.11;61.61;99902.69;7406260;19;1851;-64
2022/09/29 08:03:32;;;;;;;;;;;;;;;23.12;61.80;99907.03;7408391;19;1617;-64
2022/09/29 08:06:00;;;;;;;;;;;;;;;23.16;61.60;99902.97;7408606;19;1002;-64
2022/09/29 08:08:28;;;;;;;;;;;;;;;23.12;61.60;99893.56;7405523;19;1688;-64
2022/09/29 08:11:06;;;;;;;;;;;;;;;23.10;61.62;99893.75;7405827;19;1451;-64
2022/09/29 08:13:35;;;;;;;;;;;;;;;23.13;61.74;99887.16;7405091;19;1596;-64
2022/09/29 08:16:04;;;;;;;;;;;;;;;23.09;61.43;99899.34;7404739;19;1198;-64
2022/09/29 08:18:33;;;;;;;;;;;;;;;23.12;61.19;99888.16;7406029;19;1348;-64
2022/09/29 08:21:01;;;;;;;;;;;;;;;23.13;61.48;99890.69;7404333;19;1852;-63
2022/09/29 08:23:30;;;;;;;;;;;;;;;23.14;61.53;99888.81;7406219;19;1403;-63
2022/09/29 08:26:05;;;;;;;;;;;;;;;23.16;61.39;99881.41;7405424;19;1511;-64
2022/09/29 08:28:34;;;;;;;;;;;;;;;23.17;61.34;99904.63;7404902;19;1546;-64
2022/09/29 08:31:06;;;;;;;;;;;;;;;23.19;61.33;99898.03;7407043;19;1530;-63
2022/09/29 08:33:34;;;;;;;;;;;;;;;23.17;60.99;99900.06;7406875;19;1349;-64
2022/09/29 08:36:04;;;;;;;;;;;;;;;23.17;61.04;99885.75;7406341;19;1624;-64
2022/09/29 08:38:33;;;;;;;;;;;;;;;23.25;60.81;99912.66;7407991;19;1010;-64
2022/09/29 08:41:06;;;;;;;;;;;;;;;23.19;61.07;99908.00;7403282;19;1853;-64
2022/09/29 08:43:39;;;;;;;;;;;;;;;23.22;60.93;99907.63;7405495;19;1546;-63
2022/09/29 08:46:10;;;;;;;;;;;;;;;23.19;60.93;99908.81;7402644;19;1525;-66
2022/09/29 08:48:42;;;;;;;;;;;;;;;23.20;60.93;99904.28;7404489;19;1250;-65
2022/09/29 08:51:14;;;;;;;;;;;;;;;23.13;60.93;99908.72;7405669;19;1445;-66
2022/09/29 08:53:46;;;;;;;;;;;;;;;23.13;61.13;99903.34;7405075;19;983;-65
2022/09/29 08:56:19;;;;;;;;;;;;;;;23.09;61.49;99902.03;7405850;19;1560;-66
2022/09/29 08:58:47;;;;;;;;;;;;;;;23.13;61.14;99916.81;7403969;19;1487;-65
2022/09/29 09:01:23;;;;;;;;;;;;;;;23.15;61.12;99918.31;7403063;19;1834;-66
2022/09/29 09:04:09;;;;;;;;;;;;;;;23.15;61.09;99923.69;7402243;19;1562;-66
2022/09/29 09:06:46;;;;;;;;;;;;;;;23.10;61.08;99909.94;7404670;19;1590;-65
2022/09/29 09:09:22;;;;;;;;;;;;;;;23.17;60.93;99926.22;7406299;19;1376;-65
2022/09/29 09:12:06;;;;;;;;;;;;;;;23.17;61.29;99924.34;7405431;19;1756;-66
2022/09/29 09:14:52;;;;;;;;;;;;;;;23.19;61.22;99929.56;7403738;19;1469;-66
2022/09/29 09:17:25;;;;;;;;;;;;;;;23.19;61.75;99918.78;7402502;19;1638;-66
2022/09/29 09:20:05;;;;;;;;;;;;;;;23.20;61.92;99929.38;7401439;19;1849;-65
2022/09/29 09:22:39;;;;;;;;;;;;;;;23.45;61.23;99902.16;7402733;19;1559;-68
2022/09/29 09:25:15;;;;;;;;;;;;;;;23.42;60.51;99900.66;7404938;19;1292;-68
2022/09/29 09:27:48;;;;;;;;;;;;;;;23.42;63.48;99919.56;7405222;19;1617;-70
2022/09/29 09:30:17;;;;;;;;;;;;;;;23.40;61.65;99904.59;7405036;19;1288;-65
2022/09/29 09:32:48;;;;;;;;;;;;;;;23.50;60.62;99901.59;7403951;19;1359;-66
2022/09/29 09:35:29;;;;;;;;;;;;;;;23.48;62.35;99892.84;7404538;19;1733;-67
2022/09/29 09:38:01;;;;;;;;;;;;;;;23.44;61.57;99884.28;7401731;19;1661;-67
2022/09/29 09:40:31;;;;;;;;;;;;;;;23.45;57.13;99885.13;7402448;19;1857;-69
2022/09/29 09:43:06;;;;;;;;;;;;;;;23.37;59.93;99884.19;7403934;19;1511;-71
2022/09/29 09:45:38;;;;;;;;;;;;;;;23.30;59.74;99888.66;7403542;19;1316;-70
2022/09/29 09:48:10;;;;;;;;;;;;;;;23.28;58.41;99901.50;7400804;19;1579;-71
2022/09/29 09:50:42;;;;;;;;;;;;;;;23.28;58.07;99888.00;7400490;19;1537;-70
2022/09/29 09:53:15;;;;;;;;;;;;;;;23.31;57.10;99884.94;7401154;19;995;-70
2022/09/29 09:55:43;;;;;;;;;;;;;;;23.30;57.40;99893.19;7397622;19;1478;-70
2022/09/29 09:58:24;;;;;;;;;;;;;;;23.26;57.27;99892.75;7406721;19;1533;-70
2022/09/29 10:00:55;;;;;;;;;;;;;;;23.26;57.45;99881.09;7406003;19;1853;-69
2022/09/29 10:03:23;;;;;;;;;;;;;;;23.28;56.95;99890.72;7412038;19;1369;-70
2022/09/29 10:05:52;;;;;;;;;;;;;;;23.21;56.86;99911.34;7412898;19;919;-70
2022/09/29 10:08:23;;;;;;;;;;;;;;;23.26;56.64;99898.16;7412062;19;1764;-70
2022/09/29 10:10:51;;;;;;;;;;;;;;;23.27;56.46;99899.81;7409441;19;1764;-70
2022/09/29 10:13:23;;;;;;;;;;;;;;;23.32;57.03;99918.16;7411708;19;1624;-70
2022/09/29 10:15:54;;;;;;;;;;;;;;;23.22;57.64;99910.34;7411005;19;1365;-70
2022/09/29 10:18:24;;;;;;;;;;;;;;;23.17;58.09;99921.66;7410728;19;1773;-70
2022/09/29 10:20:52;;;;;;;;;;;;;;;23.22;57.79;99918.44;7411117;19;1848;-70
2022/09/29 10:23:31;;;;;;;;;;;;;;;23.18;58.61;99922.50;7412384;19;944;-66
2022/09/29 10:26:17;;;;;;;;;;;;;;;23.24;58.34;99902.91;7409287;19;1688;-66
2022/09/29 10:28:49;;;;;;;;;;;;;;;23.25;58.99;99901.84;7407380;19;1821;-66
2022/09/29 10:31:22;;;;;;;;;;;;;;;23.35;59.48;99909.69;7409490;19;1659;-67
2022/09/29 10:33:52;;;;;;;;;;;;;;;23.48;59.22;99903.66;7409845;19;1604;-65
2022/09/29 10:36:21;;;;;;;;;;;;;;;23.51;59.23;99905.97;7410895;19;1550;-68
2022/09/29 10:38:50;;;;;;;;;;;;;;;23.53;59.30;99903.91;7411752;19;945;-67
2022/09/29 10:41:19;;;;;;;;;;;;;;;23.51;59.18;99900.56;7407763;19;1861;-67
2022/09/29 10:43:51;;;;;;;;;;;;;;;23.47;59.11;99899.25;7408571;19;1374;-68
2022/09/29 10:46:35;;;;;;;;;;;;;;;23.51;58.82;99895.16;7410026;19;1743;-69
2022/09/29 10:49:15;;;;;;;;;;;;;;;23.47;58.76;99892.00;7409669;19;1495;-67
2022/09/29 10:51:49;;;;;;;;;;;;;;;23.47;58.51;99888.47;7410538;19;1436;-67
2022/09/29 10:54:18;;;;;;;;;;;;;;;23.54;58.52;99901.03;7409979;19;1613;-67
2022/09/29 10:56:50;;;;;;;;;;;;;;;23.49;58.59;99889.94;7409488;19;1890;-67
2022/09/29 10:59:21;;;;;;;;;;;;;;;23.47;58.37;99889.31;7409234;19;1617;-67
2022/09/29 11:01:51;;;;;;;;;;;;;;;23.48;58.14;99892.84;7404648;19;1844;-66
2022/09/29 11:04:22;;;;;;;;;;;;;;;23.53;58.22;99902.03;7409248;19;1560;-67
2022/09/29 11:06:51;;;;;;;;;;;;;;;23.52;57.36;99880.66;7408328;19;1625;-66
2022/09/29 11:09:30;;;;;;;;;;;;;;;23.53;55.70;99883.16;7409851;19;993;-67
2022/09/29 11:12:00;;;;;;;;;;;;;;;23.60;55.00;99883.25;7408746;19;1507;-66
2022/09/29 11:14:32;;;;;;;;;;;;;;;23.62;55.00;99875.81;7410177;19;1598;-67
2022/09/29 11:17:01;;;;;;;;;;;;;;;23.59;55.43;99870.78;7410017;19;1620;-70
2022/09/29 11:19:31;;;;;;;;;;;;;;;23.56;55.18;99877.41;7408553;19;1500;-67
2022/09/29 11:22:22;;;;;;;;;;;;;;;23.51;55.48;99877.09;7407988;19;1857;-67
2022/09/29 11:24:58;;;;;;;;;;;;;;;23.52;55.28;99870.69;7410409;19;1470;-69
2022/09/29 11:27:32;;;;;;;;;;;;;;;23.45;55.84;99871.63;7408457;19;1572;-67
2022/09/29 11:30:08;;;;;;;;;;;;;;;23.35;54.67;99853.84;7410386;19;1771;-66
2022/09/29 11:32:42;;;;;;;;;;;;;;;23.32;55.25;99862.34;7410813;19;1693;-68
2022/09/29 11:35:20;;;;;;;;;;;;;;;23.33;55.55;99861.28;7409125;19;1691;-66
2022/09/29 11:38:03;;;;;;;;;;;;;;;23.37;55.79;99868.00;7408486;19;1785;-65
2022/09/29 11:40:39;;;;;;;;;;;;;;;23.37;55.11;99865.28;7405730;19;1558;-67
2022/09/29 11:43:12;;;;;;;;;;;;;;;23.40;55.46;99862.25;7409002;19;1543;-67
2022/09/29 11:45:45;;;;;;;;;;;;;;;23.47;53.19;99873.13;7408342;19;1613;-67
2022/09/29 11:48:30;;;;;;;;;;;;;;;23.57;52.14;99864.72;7408176;19;1273;-67
2022/09/29 11:51:04;;;;;;;;;;;;;;;23.55;51.66;99853.28;7406120;19;1551;-67
2022/09/29 11:53:46;;;;;;;;;;;;;;;23.55;51.25;99850.59;7408722;19;953;-67
2022/09/29 11:56:22;;;;;;;;;;;;;;;23.60;51.77;99864.38;7405646;19;1442;-67
2022/09/29 11:59:02;;;;;;;;;;;;;;;23.55;53.07;99853.28;7407033;19;1380;-68
2022/09/29 12:01:42;;;;;;;;;;;;;;;23.50;53.23;99845.78;7404071;19;1872;-67
2022/09/29 12:04:25;;;;;;;;;;;;;;;23.46;53.21;99844.47;7406636;19;1463;-67
2022/09/29 12:06:57;;;;;;;;;;;;;;;23.47;53.57;99850.69;7405466;19;1405;-67
2022/09/29 12:09:42;;;;;;;;;;;;;;;23.47;53.78;99843.44;7407850;19;1281;-67
2022/09/29 12:12:16;;;;;;;;;;;;;;;23.56;54.05;99850.41;7407162;19;1649;-67
2022/09/29 12:14:49;;;;;;;;;;;;;;;23.57;52.73;99852.06;7406539;19;1502;-67
2022/09/29 12:17:22;;;;;;;;;;;;;;;23.66;51.18;99850.13;7405905;19;1798;-66
2022/09/29 12:20:00;;;;;;;;;;;;;;;23.65;52.15;99863.81;7404988;19;1383;-68
2022/09/29 12:22:29;;;;;;;;;;;;;;;23.65;51.80;99853.84;7406404;19;1867;-68
2022/09/29 12:25:00;;;;;;;;;;;;;;;23.71;51.38;99861.16;7407692;19;1253;-65
2022/09/29 12:27:31;;;;;;;;;;;;;;;23.80;49.07;99867.34;7407024;19;1320;-67
2022/09/29 12:30:01;;;;;;;;;;;;;;;23.78;48.86;99872.94;7406325;19;1313;-67
2022/09/29 12:32:35;;;;;;;;;;;;;;;23.78;48.86;99864.84;7406924;19;1768;-67
2022/09/29 12:35:06;;;;;;;;;;;;;;;23.84;49.17;99857.03;7406071;19;1363;-67
2022/09/29 12:37:39;;;;;;;;;;;;;;;23.78;49.28;99864.00;7404575;19;1375;-66
2022/09/29 12:40:11;;;;;;;;;;;;;;;23.67;51.45;99861.75;7406770;19;1333;-66
2022/09/29 12:42:56;;;;;;;;;;;;;;;23.64;50.29;99852.19;7405011;19;1911;-66
2022/09/29 12:45:28;;;;;;;;;;;;;;;23.64;51.32;99865.66;7407467;19;1022;-67
2022/09/29 12:48:03;;;;;;;;;;;;;;;23.58;50.97;99858.31;7405609;19;1288;-66
2022/09/29 12:50:35;;;;;;;;;;;;;;;23.57;51.73;99870.13;7406554;19;1622;-66
2022/09/29 12:53:06;;;;;;;;;;;;;;;23.51;52.51;99868.19;7406064;19;1442;-66
2022/09/29 12:55:39;;;;;;;;;;;;;;;23.49;52.34;99873.75;7405034;19;1317;-69
2022/09/29 12:58:11;;;;;;;;;;;;;;;23.49;52.86;99872.94;7406497;19;1336;-68
2022/09/29 13:00:43;;;;;;;;;;;;;;;23.46;53.16;99876.00;7405023;19;1537;-66
2022/09/29 13:03:32;;;;;;;;;;;;;;;23.47;53.17;99870.41;7403995;19;1854;-69
2022/09/29 13:06:18;;;;;;;;;;;;;;;23.41;53.49;99874.69;7404787;19;1465;-67
2022/09/29 13:08:57;;;;;;;;;;;;;;;23.38;53.42;99880.47;7404378;19;1258;-69
2022/09/29 13:11:46;;;;;;;;;;;;;;;23.40;52.29;99867.63;7405007;19;1398;-65
2022/09/29 13:14:32;;;;;;;;;;;;;;;23.45;52.68;99869.75;7405120;19;1348;-65
2022/09/29 13:17:06;;;;;;;;;;;;;;;23.39;52.92;99871.34;7405361;19;1316;-65
2022/09/29 13:19:47;;;;;;;;;;;;;;;23.37;53.22;99869.88;7405394;19;1376;-65
2022/09/29 13:22:31;;;;;;;;;;;;;;;23.33;53.42;99877.47;7404158;19;1838;-65